^^
Station Historical Data
 
Daily Summary for June 24, 2019 Units:  English    Metric   Both
« Previous Day
Next Day »
Daily Weekly Monthly Yearly Custom
  Current: High: Low: Average:
Temperature: 65.4 °F 78.1 °F 50.3 °F 64.6 °F
Dew Point: 56.1 °F 60.2 °F 47.1 °F 52.7 °F
Humidity: 72% 90% 43% 67%
Wind Speed: 9mph 26mph 0mph 5.6mph
Wind Gust: 20mph 39mph - -
WindNW - - West
Pressure: 29.52 in 29.59 in 29.46 in -
Precipitation: 0.08 in      
Historical Graphs
 
 
Tabular Data for June 24, 2019
Time Temperature Dew Point Pressure Wind Wind Speed Wind Gust Humidity Rainfall Rate (Hourly) solar Conditions
00:04 62.5 °F 50.2 °F 29.59 in East 3 mph 6 mph 64% 0 in 0.00 W/m2
00:09 61.6 °F 50.1 °F 29.59 in East 4 mph 6 mph 66% 0 in 0.00 W/m2
00:14 61 °F 50 °F 29.59 in East 4 mph 6 mph 67% 0 in 0.00 W/m2
00:19 60.7 °F 50.1 °F 29.59 in ESE 4 mph 6 mph 68% 0 in 0.00 W/m2
00:24 60.7 °F 50.1 °F 29.59 in ESE 4 mph 6 mph 68% 0 in 0.00 W/m2
00:29 60.6 °F 50 °F 29.59 in ESE 4 mph 6 mph 68% 0 in 0.00 W/m2
00:34 60.7 °F 50.1 °F 29.59 in ESE 3 mph 6 mph 68% 0 in 0.00 W/m2
00:39 60.9 °F 50.3 °F 29.59 in SE 4 mph 6 mph 68% 0 in 0.00 W/m2
00:44 60.9 °F 50.3 °F 29.59 in SE 2 mph 6 mph 68% 0 in 0.00 W/m2
00:49 59.5 °F 49.7 °F 29.59 in SW 3 mph 7 mph 70% 0 in 0.00 W/m2
00:54 58.9 °F 49.9 °F 29.59 in SW 2 mph 7 mph 72% 0 in 0.00 W/m2
00:59 58.9 °F 49.9 °F 29.59 in SW 3 mph 5 mph 72% 0 in 0.00 W/m2
01:04 59.1 °F 50.1 °F 29.59 in SW 2 mph 5 mph 72% 0 in 0.00 W/m2
01:09 59.2 °F 50.2 °F 29.59 in SW 2 mph 4 mph 72% 0 in 0.00 W/m2
01:14 59.3 °F 50.3 °F 29.59 in Calm   4 mph 72% 0 in 0.00 W/m2
01:19 59.3 °F 50.3 °F 29.59 in SW 1 mph 4 mph 72% 0 in 0.00 W/m2
01:24 59.3 °F 50.3 °F 29.58 in SW 1 mph 4 mph 72% 0 in 0.00 W/m2
01:29 59.4 °F 50.7 °F 29.58 in SW 1 mph 3 mph 73% 0 in 0.00 W/m2
01:34 59.5 °F 50.8 °F 29.58 in Calm   2 mph 73% 0 in 0.00 W/m2
01:39 59.6 °F 50.9 °F 29.58 in Calm   2 mph 73% 0 in 0.00 W/m2
01:44 59.5 °F 51.2 °F 29.58 in SW 2 mph 2 mph 74% 0 in 0.00 W/m2
01:49 59.5 °F 51.2 °F 29.57 in SW 2 mph 2 mph 74% 0 in 0.00 W/m2
01:54 59.5 °F 51.2 °F 29.57 in SW 2 mph 3 mph 74% 0 in 0.00 W/m2
01:59 59.6 °F 51.3 °F 29.57 in SW 2 mph 3 mph 74% 0 in 0.00 W/m2
02:04 59.6 °F 51.3 °F 29.57 in SW 3 mph 4 mph 74% 0 in 0.00 W/m2
02:09 59.6 °F 51.3 °F 29.57 in SSW 2 mph 5 mph 74% 0 in 0.00 W/m2
02:14 59.6 °F 51.3 °F 29.56 in SSW 3 mph 5 mph 74% 0 in 0.00 W/m2
02:19 59.7 °F 51 °F 29.56 in SSW 3 mph 5 mph 73% 0 in 0.00 W/m2
02:24 59.8 °F 50.8 °F 29.56 in SSW 2 mph 5 mph 72% 0 in 0.00 W/m2
02:29 59.8 °F 50.8 °F 29.56 in SSW 2 mph 4 mph 72% 0 in 0.00 W/m2
02:34 59.9 °F 50.8 °F 29.56 in SSW 1 mph 3 mph 72% 0 in 0.00 W/m2
02:39 60 °F 50.6 °F 29.56 in SSW 2 mph 3 mph 71% 0 in 0.00 W/m2
02:44 60.1 °F 50.7 °F 29.55 in SSW 2 mph 3 mph 71% 0 in 0.00 W/m2
02:49 60.2 °F 50.4 °F 29.55 in SSW 2 mph 3 mph 70% 0 in 0.00 W/m2
02:54 60.2 °F 50.4 °F 29.55 in SSW 2 mph 3 mph 70% 0 in 0.00 W/m2
02:59 60.1 °F 50.3 °F 29.55 in SSW 1 mph 3 mph 70% 0 in 0.00 W/m2
03:04 60 °F 50.2 °F 29.55 in SSW 1 mph 3 mph 70% 0 in 0.00 W/m2
03:09 60 °F 50.2 °F 29.55 in SSW 1 mph 2 mph 70% 0 in 0.00 W/m2
03:14 60.1 °F 50.3 °F 29.55 in SSW 2 mph 2 mph 70% 0 in 0.00 W/m2
03:19 60.1 °F 49.9 °F 29.55 in SSW 1 mph 2 mph 69% 0 in 0.00 W/m2
03:24 59.8 °F 50 °F 29.55 in SSW 3 mph 3 mph 70% 0 in 0.00 W/m2
03:29 58.6 °F 49.2 °F 29.55 in SSW 3 mph 4 mph 71% 0 in 0.00 W/m2
03:34 56.9 °F 48.7 °F 29.55 in SSW 2 mph 4 mph 74% 0 in 0.00 W/m2
03:39 55.4 °F 48 °F 29.55 in SW 2 mph 4 mph 76% 0 in 0.00 W/m2
03:44 54.1 °F 47.7 °F 29.55 in SW 2 mph 4 mph 79% 0 in 0.00 W/m2
03:49 53.4 °F 48 °F 29.55 in SW 3 mph 4 mph 82% 0 in 0.00 W/m2
03:54 52.9 °F 47.9 °F 29.54 in WNW 4 mph 4 mph 83% 0 in 0.00 W/m2
03:59 52.6 °F 47.9 °F 29.54 in NW 3 mph 4 mph 84% 0 in 0.00 W/m2
04:04 52.4 °F 48 °F 29.54 in NW 3 mph 4 mph 85% 0 in 0.00 W/m2
04:09 52.3 °F 48.2 °F 29.54 in NNW 4 mph 4 mph 86% 0 in 0.00 W/m2
04:14 52.4 °F 48.3 °F 29.54 in NNW 4 mph 5 mph 86% 0 in 0.00 W/m2
04:19 52.4 °F 48.3 °F 29.54 in North 4 mph 5 mph 86% 0 in 0.00 W/m2
04:24 52.4 °F 48.3 °F 29.54 in North 4 mph 5 mph 86% 0 in 0.00 W/m2
04:29 52.4 °F 48.3 °F 29.54 in NNW 4 mph 5 mph 86% 0 in 0.00 W/m2
04:34 52.4 °F 48.3 °F 29.54 in NNW 4 mph 5 mph 86% 0 in 0.00 W/m2
04:39 52.5 °F 48.7 °F 29.54 in NNW 2 mph 5 mph 87% 0 in 0.00 W/m2
04:44 52.6 °F 48.8 °F 29.54 in NNW 1 mph 5 mph 87% 0 in 0.00 W/m2
04:49 53.1 °F 49.3 °F 29.54 in NNW 1 mph 5 mph 87% 0 in 0.00 W/m2
04:54 53.4 °F 49 °F 29.55 in NNW 1 mph 1 mph 85% 0 in 0.00 W/m2
04:59 53 °F 48.3 °F 29.55 in NNW 1 mph 2 mph 84% 0 in 0.00 W/m2
05:04 52.2 °F 47.5 °F 29.55 in NW 4 mph 4 mph 84% 0 in 0.00 W/m2
05:09 51.8 °F 47.7 °F 29.55 in WSW 1 mph 4 mph 86% 0 in 0.00 W/m2
05:14 51.7 °F 47.6 °F 29.55 in WSW 3 mph 4 mph 86% 0 in 0.00 W/m2
05:19 51.2 °F 47.5 °F 29.55 in WSW 3 mph 4 mph 87% 0 in 0.00 W/m2
05:24 50.9 °F 47.2 °F 29.55 in WSW 3 mph 4 mph 87% 0 in 0.00 W/m2
05:29 50.8 °F 47.4 °F 29.55 in WSW 2 mph 4 mph 88% 0 in 0.00 W/m2
05:34 50.7 °F 47.3 °F 29.55 in WSW 2 mph 3 mph 88% 0 in 0.00 W/m2
05:39 50.6 °F 47.5 °F 29.55 in WSW 2 mph 3 mph 89% 0 in 0.00 W/m2
05:44 50.6 °F 47.5 °F 29.55 in Calm   3 mph 89% 0 in 0.00 W/m2
05:49 50.8 °F 47.7 °F 29.55 in Calm   2 mph 89% 0 in 0.00 W/m2
05:54 50.9 °F 47.8 °F 29.55 in Calm   1 mph 89% 0 in 5.00 W/m2
05:59 51 °F 47.9 °F 29.55 in WSW 2 mph 2 mph 89% 0 in 5.00 W/m2
06:04 50.8 °F 47.7 °F 29.55 in WSW 3 mph 3 mph 89% 0 in 7.00 W/m2
06:09 50.5 °F 47.1 °F 29.55 in WSW 1 mph 3 mph 88% 0 in 9.00 W/m2
06:14 50.3 °F 47.2 °F 29.55 in WSW 2 mph 3 mph 89% 0 in 11.00 W/m2
06:19 50.3 °F 47.5 °F 29.55 in WSW 1 mph 3 mph 90% 0 in 14.00 W/m2
06:24 50.4 °F 47.6 °F 29.55 in WSW 3 mph 4 mph 90% 0 in 19.00 W/m2
06:29 50.5 °F 47.7 °F 29.55 in WNW 2 mph 4 mph 90% 0 in 21.00 W/m2
06:34 50.6 °F 47.8 °F 29.55 in WNW 2 mph 4 mph 90% 0 in 25.00 W/m2
06:39 50.8 °F 48 °F 29.55 in West 4 mph 4 mph 90% 0 in 26.00 W/m2
06:44 51.1 °F 48.3 °F 29.55 in WNW 2 mph 7 mph 90% 0 in 28.00 W/m2
06:49 51.4 °F 48.6 °F 29.55 in WNW 3 mph 7 mph 90% 0 in 30.00 W/m2
06:54 51.7 °F 48.6 °F 29.55 in WNW 1 mph 5 mph 89% 0 in 33.00 W/m2
06:59 51.8 °F 48.7 °F 29.55 in WNW 3 mph 5 mph 89% 0 in 35.00 W/m2
07:04 52.1 °F 49.3 °F 29.55 in WNW 1 mph 3 mph 90% 0 in 37.00 W/m2
07:09 52.4 °F 49.3 °F 29.55 in WNW 1 mph 3 mph 89% 0 in 42.00 W/m2
07:14 52.6 °F 49.4 °F 29.55 in Calm   3 mph 89% 0 in 46.00 W/m2
07:19 52.9 °F 49.7 °F 29.55 in WNW 1 mph 3 mph 89% 0 in 49.00 W/m2
07:24 53.4 °F 50.2 °F 29.55 in Calm   2 mph 89% 0 in 51.00 W/m2
07:29 53.9 °F 50.4 °F 29.55 in Calm   2 mph 88% 0 in 49.00 W/m2
07:34 54.7 °F 50.9 °F 29.55 in WNW 1 mph 2 mph 87% 0 in 167.00 W/m2
07:39 55.5 °F 51.4 °F 29.54 in WNW 1 mph 2 mph 86% 0 in 179.00 W/m2
07:44 56.1 °F 51.7 °F 29.54 in WNW 1 mph 2 mph 85% 0 in 185.00 W/m2
07:49 56.9 °F 52.1 °F 29.54 in WNW 2 mph 3 mph 84% 0 in 174.00 W/m2
07:54 57.7 °F 52.2 °F 29.54 in WNW 2 mph 3 mph 82% 0 in 176.00 W/m2
07:59 58.1 °F 52.3 °F 29.54 in WNW 2 mph 3 mph 81% 0 in 227.00 W/m2
08:04 58.5 °F 52.4 °F 29.54 in WNW 1 mph 3 mph 80% 0 in 251.00 W/m2
08:09 59 °F 52.8 °F 29.54 in WNW 2 mph 3 mph 80% 0 in 274.00 W/m2
08:14 59.6 °F 52.7 °F 29.54 in WNW 2 mph 4 mph 78% 0 in 295.00 W/m2
08:19 60.1 °F 53.2 °F 29.54 in West 2 mph 4 mph 78% 0 in 313.00 W/m2
08:24 60.3 °F 54.1 °F 29.54 in WSW 3 mph 4 mph 80% 0 in 332.00 W/m2
08:29 60.4 °F 54.2 °F 29.54 in West 2 mph 4 mph 80% 0 in 352.00 W/m2
08:34 60.6 °F 54.4 °F 29.53 in West 1 mph 4 mph 80% 0 in 367.00 W/m2
08:39 60.9 °F 54.7 °F 29.53 in West 4 mph 4 mph 80% 0 in 383.00 W/m2
08:44 61.3 °F 54.7 °F 29.53 in West 2 mph 6 mph 79% 0 in 399.00 W/m2
08:49 61.8 °F 54.9 °F 29.53 in WNW 2 mph 6 mph 78% 0 in 413.00 W/m2
08:54 62.2 °F 53.4 °F 29.53 in WNW 2 mph 6 mph 73% 0 in 427.00 W/m2
08:59 62.8 °F 53.3 °F 29.53 in WNW 4 mph 6 mph 71% 0 in 445.00 W/m2
09:04 63.6 °F 53.2 °F 29.53 in WNW 7 mph 8 mph 69% 0 in 457.00 W/m2
09:09 63.9 °F 53.5 °F 29.53 in WSW 5 mph 9 mph 69% 0 in 468.00 W/m2
09:14 64.1 °F 53.3 °F 29.53 in WNW 7 mph 9 mph 68% 0 in 482.00 W/m2
09:19 64.4 °F 53.6 °F 29.53 in West 7 mph 9 mph 68% 0 in 496.00 W/m2
09:24 64.7 °F 54.3 °F 29.52 in West 6 mph 9 mph 69% 0 in 508.00 W/m2
09:29 65.3 °F 54.9 °F 29.52 in West 7 mph 10 mph 69% 0 in 522.00 W/m2
09:34 65.3 °F 53.6 °F 29.52 in West 7 mph 11 mph 66% 0 in 534.00 W/m2
09:39 65.7 °F 54.8 °F 29.52 in West 6 mph 11 mph 68% 0 in 548.00 W/m2
09:44 65.9 °F 54.6 °F 29.52 in WNW 7 mph 10 mph 67% 0 in 559.00 W/m2
09:49 66.3 °F 55.4 °F 29.52 in West 8 mph 10 mph 68% 0 in 573.00 W/m2
09:54 66.8 °F 54.7 °F 29.52 in West 8 mph 11 mph 65% 0 in 585.00 W/m2
09:59 67.3 °F 54.7 °F 29.52 in West 10 mph 12 mph 64% 0 in 598.00 W/m2
10:04 67.9 °F 56.1 °F 29.52 in WNW 7 mph 12 mph 66% 0 in 612.00 W/m2
10:09 68.6 °F 55.9 °F 29.52 in WNW 8 mph 12 mph 64% 0 in 622.00 W/m2
10:14 68.9 °F 54.9 °F 29.52 in WNW 9 mph 12 mph 61% 0 in 631.00 W/m2
10:19 69.4 °F 55.8 °F 29.52 in West 8 mph 11 mph 62% 0 in 645.00 W/m2
10:24 69.8 °F 56.2 °F 29.52 in WNW 4 mph 12 mph 62% 0 in 657.00 W/m2
10:29 70.2 °F 55.7 °F 29.52 in NW 6 mph 12 mph 60% 0 in 671.00 W/m2
10:34 70.6 °F 54.1 °F 29.52 in WNW 10 mph 12 mph 56% 0 in 682.00 W/m2
10:39 70.7 °F 54.7 °F 29.52 in WNW 8 mph 13 mph 57% 0 in 694.00 W/m2
10:44 70.8 °F 55.3 °F 29.52 in West 8 mph 13 mph 58% 0 in 703.00 W/m2
10:49 71 °F 55 °F 29.52 in NW 4 mph 11 mph 57% 0 in 714.00 W/m2
10:54 71.1 °F 54.1 °F 29.52 in WNW 3 mph 11 mph 55% 0 in 722.00 W/m2
10:59 71.5 °F 54 °F 29.52 in West 10 mph 11 mph 54% 0 in 737.00 W/m2
11:04 71.9 °F 54.3 °F 29.52 in West 4 mph 11 mph 54% 0 in 747.00 W/m2
11:09 71.9 °F 53.8 °F 29.52 in WNW 4 mph 11 mph 53% 0 in 756.00 W/m2
11:14 72.3 °F 55.7 °F 29.51 in West 6 mph 11 mph 56% 0 in 765.00 W/m2
11:19 72.8 °F 54.1 °F 29.52 in WNW 4 mph 11 mph 52% 0 in 775.00 W/m2
11:24 73.2 °F 55 °F 29.51 in West 8 mph 11 mph 53% 0 in 782.00 W/m2
11:29 73.5 °F 55.8 °F 29.51 in West 8 mph 11 mph 54% 0 in 789.00 W/m2
11:34 73.6 °F 54.9 °F 29.51 in West 3 mph 10 mph 52% 0 in 761.00 W/m2
11:39 73.7 °F 54.4 °F 29.51 in West 4 mph 10 mph 51% 0 in 722.00 W/m2
11:44 73.5 °F 53.7 °F 29.51 in Calm   10 mph 50% 0 in 700.00 W/m2
11:49 74 °F 55.3 °F 29.51 in WNW 2 mph 10 mph 52% 0 in 710.00 W/m2
11:54 74.4 °F 56.2 °F 29.51 in NW 1 mph 10 mph 53% 0 in 756.00 W/m2
11:59 74.5 °F 54.1 °F 29.51 in West 4 mph 12 mph 49% 0 in 795.00 W/m2
12:04 74.7 °F 55.9 °F 29.51 in WSW 11 mph 12 mph 52% 0 in 835.00 W/m2
12:09 74.8 °F 53.8 °F 29.51 in WSW 2 mph 11 mph 48% 0 in 856.00 W/m2
12:14 74.8 °F 52.6 °F 29.51 in SSW 6 mph 11 mph 46% 0 in 867.00 W/m2
12:19 75.6 °F 52.1 °F 29.51 in WSW 2 mph 10 mph 44% 0 in 881.00 W/m2
12:24 75.7 °F 55.2 °F 29.51 in WSW 9 mph 13 mph 49% 0 in 905.00 W/m2
12:29 75.9 °F 53.6 °F 29.51 in WSW 3 mph 13 mph 46% 0 in 944.00 W/m2
12:34 76.1 °F 53.2 °F 29.51 in SW 7 mph 13 mph 45% 0 in 1025.00 W/m2
12:39 76.6 °F 54.3 °F 29.50 in SSW 9 mph 13 mph 46% 0 in 1132.00 W/m2
12:44 76.8 °F 53.2 °F 29.50 in West 6 mph 13 mph 44% 0 in 353.00 W/m2
12:49 75.6 °F 52.8 °F 29.50 in SW 9 mph 13 mph 45% 0 in 267.00 W/m2
12:54 74.9 °F 53.3 °F 29.50 in WSW 8 mph 13 mph 47% 0 in 1127.00 W/m2
12:59 75.4 °F 53.2 °F 29.50 in WSW 15 mph 18 mph 46% 0 in 299.00 W/m2
13:04 75.2 °F 53.6 °F 29.50 in NW 5 mph 18 mph 47% 0 in 1239.00 W/m2
13:09 76.3 °F 55.2 °F 29.50 in NW 5 mph 18 mph 48% 0 in 1232.00 W/m2
13:14 74.9 °F 55 °F 29.50 in WNW 4 mph 18 mph 50% 0 in 188.00 W/m2
13:19 73.7 °F 54.4 °F 29.50 in NW 11 mph 11 mph 51% 0 in 120.00 W/m2
13:24 71.9 °F 55.8 °F 29.51 in WNW 8 mph 15 mph 57% 0 in 105.00 W/m2
13:29 69.6 °F 58.6 °F 29.51 in West 8 mph 15 mph 68% 0.02 in 160.00 W/m2
13:34 68.2 °F 55.1 °F 29.50 in WNW 5 mph 15 mph 63% 0.05 in 315.00 W/m2
13:39 69.6 °F 59.4 °F 29.50 in WNW 3 mph 15 mph 70% 0.05 in 947.00 W/m2
13:44 71.7 °F 58.4 °F 29.49 in NW 3 mph 8 mph 63% 0.05 in 965.00 W/m2
13:49 73.2 °F 57.5 °F 29.49 in WNW 7 mph 10 mph 58% 0.05 in 993.00 W/m2
13:54 72.9 °F 56.3 °F 29.49 in WNW 5 mph 10 mph 56% 0.05 in 209.00 W/m2
13:59 72.1 °F 57.4 °F 29.49 in NW 9 mph 17 mph 60% 0.05 in 213.00 W/m2
14:04 71.7 °F 58.9 °F 29.49 in North 8 mph 17 mph 64% 0.05 in 1002.00 W/m2
14:09 73.1 °F 60.2 °F 29.49 in NNW 9 mph 17 mph 64% 0.05 in 995.00 W/m2
14:14 74.1 °F 58.9 °F 29.49 in NNE 5 mph 17 mph 59% 0.05 in 1016.00 W/m2
14:19 75.2 °F 57.9 °F 29.49 in North 2 mph 14 mph 55% 0.05 in 1071.00 W/m2
14:24 75.7 °F 58.4 °F 29.49 in SSW 9 mph 14 mph 55% 0.05 in 1079.00 W/m2
14:29 75.6 °F 57.3 °F 29.49 in WSW 4 mph 9 mph 53% 0.02 in 295.00 W/m2
14:34 74.9 °F 57.6 °F 29.49 in West 16 mph 16 mph 55% 0 in 271.00 W/m2
14:39 74.7 °F 55.9 °F 29.48 in WNW 9 mph 16 mph 52% 0 in 1000.00 W/m2
14:44 75.2 °F 56.9 °F 29.48 in WNW 11 mph 16 mph 53% 0 in 1049.00 W/m2
14:49 75.9 °F 57.5 °F 29.48 in West 13 mph 16 mph 53% 0 in 1049.00 W/m2
14:54 75.7 °F 55.2 °F 29.48 in WNW 10 mph 16 mph 49% 0 in 991.00 W/m2
14:59 75.4 °F 56 °F 29.48 in NW 14 mph 14 mph 51% 0 in 213.00 W/m2
15:04 75.4 °F 56 °F 29.48 in WNW 8 mph 15 mph 51% 0 in 988.00 W/m2
15:09 76.2 °F 57.3 °F 29.47 in West 7 mph 16 mph 52% 0 in 1013.00 W/m2
15:14 76.6 °F 57.1 °F 29.47 in West 7 mph 19 mph 51% 0 in 951.00 W/m2
15:19 76.9 °F 58.5 °F 29.47 in SW 6 mph 19 mph 53% 0 in 939.00 W/m2
15:24 76.2 °F 55.6 °F 29.47 in WSW 12 mph 19 mph 49% 0 in 923.00 W/m2
15:29 76.5 °F 53.6 °F 29.47 in WSW 9 mph 19 mph 45% 0 in 884.00 W/m2
15:34 76.7 °F 55.5 °F 29.47 in WSW 7 mph 16 mph 48% 0 in 919.00 W/m2
15:39 77.1 °F 57.6 °F 29.47 in WSW 15 mph 21 mph 51% 0 in 940.00 W/m2
15:44 77.4 °F 55.6 °F 29.47 in West 8 mph 21 mph 47% 0 in 923.00 W/m2
15:49 77.3 °F 54.9 °F 29.47 in West 9 mph 17 mph 46% 0 in 977.00 W/m2
15:54 77.1 °F 55.9 °F 29.47 in WSW 10 mph 24 mph 48% 0 in 749.00 W/m2
15:59 77 °F 55.2 °F 29.47 in WSW 11 mph 24 mph 47% 0 in 942.00 W/m2
16:04 77.2 °F 54.8 °F 29.46 in WSW 8 mph 23 mph 46% 0 in 881.00 W/m2
16:09 77.8 °F 56.5 °F 29.46 in WNW 12 mph 23 mph 48% 0 in 854.00 W/m2
16:14 77 °F 52.8 °F 29.46 in West 11 mph 20 mph 43% 0 in 294.00 W/m2
16:19 76.1 °F 55 °F 29.46 in WSW 10 mph 20 mph 48% 0 in 295.00 W/m2
16:24 77.1 °F 55.3 °F 29.46 in SW 10 mph 18 mph 47% 0 in 898.00 W/m2
16:29 77.5 °F 55.1 °F 29.46 in WSW 14 mph 18 mph 46% 0 in 896.00 W/m2
16:34 77.9 °F 54.8 °F 29.46 in SW 15 mph 22 mph 45% 0 in 904.00 W/m2
16:39 78.1 °F 55 °F 29.46 in WSW 12 mph 22 mph 45% 0 in 872.00 W/m2
16:44 78 °F 54.3 °F 29.46 in WSW 12 mph 22 mph 44% 0 in 877.00 W/m2
16:49 77.7 °F 55.3 °F 29.46 in West 12 mph 22 mph 46% 0 in 211.00 W/m2
16:54 76.1 °F 53.8 °F 29.46 in West 8 mph 22 mph 46% 0 in 274.00 W/m2
16:59 76.2 °F 54.5 °F 29.46 in WSW 16 mph 22 mph 47% 0 in 262.00 W/m2
17:04 75.6 °F 53.9 °F 29.46 in SW 12 mph 18 mph 47% 0 in 265.00 W/m2
17:09 75.1 °F 53.5 °F 29.46 in WSW 10 mph 18 mph 47% 0 in 341.00 W/m2
17:14 75.5 °F 54.4 °F 29.46 in West 12 mph 19 mph 48% 0 in 404.00 W/m2
17:19 75.5 °F 52.7 °F 29.46 in WSW 11 mph 20 mph 45% 0 in 287.00 W/m2
17:24 75.1 °F 52.9 °F 29.46 in WSW 19 mph 20 mph 46% 0 in 197.00 W/m2
17:29 74.4 °F 52.9 °F 29.46 in WSW 17 mph 22 mph 47% 0 in 125.00 W/m2
17:34 73.5 °F 52.6 °F 29.48 in West 26 mph 34 mph 48% 0 in 44.00 W/m2
17:39 69.3 °F 53.4 °F 29.49 in WNW 26 mph 39 mph 57% 0 in 42.00 W/m2
17:44 65.4 °F 55.4 °F 29.49 in WNW 17 mph 39 mph 70% 0 in 58.00 W/m2
17:49 62.5 °F 55.2 °F 29.49 in NNW 22 mph 39 mph 77% 0.02 in 137.00 W/m2
17:54 61.9 °F 55.7 °F 29.50 in NW 13 mph 39 mph 80% 0.03 in 221.00 W/m2
17:59 62.4 °F 56.5 °F 29.51 in WNW 11 mph 28 mph 81% 0.03 in 306.00 W/m2
18:04 63.2 °F 56.2 °F 29.51 in WNW 17 mph 28 mph 78% 0.03 in 218.00 W/m2
18:09 63.6 °F 55.9 °F 29.51 in NW 10 mph 19 mph 76% 0.03 in 121.00 W/m2
18:14 63.9 °F 56.5 °F 29.52 in NW 14 mph 19 mph 77% 0.03 in 141.00 W/m2
18:19 64.3 °F 56.2 °F 29.52 in NW 6 mph 19 mph 75% 0.03 in 179.00 W/m2
18:24 64.5 °F 56.8 °F 29.52 in WNW 8 mph 19 mph 76% 0.03 in 165.00 W/m2
18:29 64.7 °F 55.8 °F 29.52 in NNW 11 mph 20 mph 73% 0.03 in 234.00 W/m2
18:34 65.6 °F 57.1 °F 29.52 in NW 13 mph 21 mph 74% 0.03 in 188.00 W/m2
18:39 65.6 °F 55.9 °F 29.52 in WNW 12 mph 21 mph 71% 0.03 in 178.00 W/m2
18:44 65.4 °F 56.1 °F 29.52 in NW 9 mph 20 mph 72% 0.03 in 146.00 W/m2
Bismarck, North Dakota, USA
Compliments of Weather Underground - 4 mb